Time;durP1;ratioP1;P1;durP2;ratioP2;P2;SDS_P1;SDS_P2;PMS_P1;PMS_P2;Temp;Humidity;BMP_temperature;BMP_pressure;BME280_temperature;BME280_humidity;BME280_pressure;Samples;Min_cycle;Max_cycle;Signal;HPM_P1;HPM_P2
2023/05/06 00:02:03;;;;;;;18.07;11.97;;;15.40;99.90;;;;;;5077360;28;20478;-62
2023/05/06 00:04:29;;;;;;;20.27;14.00;;;15.40;99.90;;;;;;5076744;27;20539;-62
2023/05/06 00:06:58;;;;;;;21.33;13.60;;;15.40;99.90;;;;;;5075592;28;20536;-63
2023/05/06 00:09:24;;;;;;;19.50;12.07;;;15.40;99.90;;;;;;5076491;27;20478;-62
2023/05/06 00:11:51;;;;;;;20.77;13.17;;;15.40;99.90;;;;;;5077676;27;20462;-62
2023/05/06 00:14:18;;;;;;;17.33;12.00;;;15.40;99.90;;;;;;5074899;28;20906;-62
2023/05/06 00:16:44;;;;;;;26.03;14.33;;;15.30;99.90;;;;;;5071332;28;20497;-63
2023/05/06 00:19:11;;;;;;;27.90;14.23;;;15.30;99.90;;;;;;5076989;28;21033;-62
2023/05/06 00:21:38;;;;;;;35.53;18.03;;;15.20;99.90;;;;;;5073096;28;20509;-63
2023/05/06 00:24:06;;;;;;;34.83;15.57;;;15.20;99.90;;;;;;5077999;28;20487;-62
2023/05/06 00:26:33;;;;;;;22.13;13.83;;;15.20;99.90;;;;;;5076511;28;20599;-62
2023/05/06 00:28:59;;;;;;;20.70;13.73;;;15.10;99.90;;;;;;5074722;28;20486;-63
2023/05/06 00:31:26;;;;;;;23.53;14.23;;;15.20;99.90;;;;;;5076636;27;20484;-62
2023/05/06 00:33:53;;;;;;;22.30;14.77;;;15.20;99.90;;;;;;5097694;27;20900;-62
2023/05/06 00:36:20;;;;;;;25.70;14.57;;;15.20;99.90;;;;;;5075377;28;20470;-62
2023/05/06 00:38:46;;;;;;;25.47;13.37;;;15.20;99.90;;;;;;5078836;28;20487;-62
2023/05/06 00:41:14;;;;;;;18.67;11.00;;;15.10;99.90;;;;;;5074943;28;20982;-62
2023/05/06 00:43:41;;;;;;;22.97;12.33;;;15.20;99.90;;;;;;5079157;27;20517;-62
2023/05/06 00:46:10;;;;;;;24.07;14.53;;;15.20;99.90;;;;;;5085132;27;20705;-62
2023/05/06 00:48:37;;;;;;;23.47;13.57;;;15.20;99.90;;;;;;5097621;27;20546;-62
2023/05/06 00:51:04;;;;;;;22.70;13.17;;;15.10;99.90;;;;;;5091940;27;20473;-62
2023/05/06 00:53:31;;;;;;;31.03;14.90;;;15.10;99.90;;;;;;5074896;27;20481;-63
2023/05/06 00:55:58;;;;;;;21.33;12.10;;;15.10;99.90;;;;;;5094375;27;20500;-63
2023/05/06 00:58:26;;;;;;;21.57;12.80;;;15.10;99.90;;;;;;5073941;28;20482;-63
2023/05/06 01:00:54;;;;;;;22.33;12.70;;;15.10;99.90;;;;;;5074092;28;20499;-62
2023/05/06 01:03:21;;;;;;;23.37;12.00;;;15.10;99.90;;;;;;5074913;28;20909;-62
2023/05/06 01:05:54;;;;;;;17.43;10.90;;;15.10;99.90;;;;;;5074080;28;20497;-63
2023/05/06 01:08:29;;;;;;;21.57;12.40;;;15.10;99.90;;;;;;5078022;28;20465;-63
2023/05/06 01:11:02;;;;;;;23.77;12.07;;;15.10;99.90;;;;;;5076000;28;20582;-62
2023/05/06 01:13:38;;;;;;;24.27;13.33;;;15.10;99.90;;;;;;5078819;28;20485;-62
2023/05/06 01:16:07;;;;;;;25.60;13.40;;;15.10;99.90;;;;;;5083716;27;20526;-62
2023/05/06 01:18:34;;;;;;;30.73;13.27;;;15.00;99.90;;;;;;5076441;28;20486;-62
2023/05/06 01:21:04;;;;;;;23.97;13.33;;;14.90;99.90;;;;;;5077017;28;20749;-62
2023/05/06 01:23:50;;;;;;;24.47;11.70;;;14.90;99.90;;;;;;5073084;28;20486;-62
2023/05/06 01:26:17;;;;;;;22.37;12.77;;;15.00;99.90;;;;;;5073213;28;20532;-62
2023/05/06 01:28:43;;;;;;;23.83;12.10;;;14.90;99.90;;;;;;5073120;28;20473;-62
2023/05/06 01:31:13;;;;;;;21.33;12.53;;;14.90;99.90;;;;;;5080732;27;20856;-63
2023/05/06 01:33:46;;;;;;;23.93;12.80;;;14.80;99.90;;;;;;5084806;27;20489;-62
2023/05/06 01:36:23;;;;;;;21.17;11.87;;;14.90;99.90;;;;;;5071604;28;20868;-63
2023/05/06 01:38:57;;;;;;;17.13;11.50;;;15.10;99.90;;;;;;5070520;28;20753;-62
2023/05/06 01:41:25;;;;;;;20.27;11.77;;;14.80;99.90;;;;;;5059078;28;20523;-62
2023/05/06 01:43:53;;;;;;;18.27;10.73;;;14.80;99.90;;;;;;5077352;28;20567;-62
2023/05/06 01:46:21;;;;;;;27.67;12.43;;;14.80;99.90;;;;;;5074799;28;20478;-62
2023/05/06 01:48:52;;;;;;;18.40;12.63;;;14.80;99.90;;;;;;5070279;28;23164;-62
2023/05/06 01:51:20;;;;;;;22.60;11.60;;;14.80;99.90;;;;;;5070731;28;20483;-63
2023/05/06 01:53:46;;;;;;;23.60;12.70;;;14.80;99.90;;;;;;5073215;28;20487;-63
2023/05/06 01:56:15;;;;;;;30.40;14.37;;;14.70;99.90;;;;;;5068521;28;20486;-62
2023/05/06 01:58:42;;;;;;;27.73;13.27;;;14.70;99.90;;;;;;5070578;28;20926;-62
2023/05/06 02:01:08;;;;;;;26.23;13.17;;;14.60;99.90;;;;;;5072724;28;20544;-62
2023/05/06 02:03:36;;;;;;;25.80;13.87;;;14.60;99.90;;;;;;5071797;27;20469;-62
2023/05/06 02:06:03;;;;;;;26.00;14.20;;;14.40;99.90;;;;;;5096856;27;20846;-62
2023/05/06 02:08:29;;;;;;;22.67;12.90;;;14.40;99.90;;;;;;5072766;28;20634;-62
2023/05/06 02:10:56;;;;;;;23.27;12.17;;;14.40;99.90;;;;;;5069463;28;20803;-62
2023/05/06 02:13:24;;;;;;;32.43;14.37;;;14.40;99.90;;;;;;5063525;27;20478;-62
2023/05/06 02:15:53;;;;;;;24.77;13.10;;;14.30;99.90;;;;;;5100251;27;20482;-62
2023/05/06 02:18:19;;;;;;;25.43;13.27;;;14.20;99.90;;;;;;5072683;28;20591;-62
2023/05/06 02:20:46;;;;;;;24.30;13.00;;;14.20;99.90;;;;;;5065088;28;20886;-62
2023/05/06 02:23:13;;;;;;;25.47;13.00;;;14.10;99.90;;;;;;5072692;28;20494;-62
2023/05/06 02:25:39;;;;;;;23.00;15.20;;;14.10;99.90;;;;;;5075023;27;20545;-63
2023/05/06 02:28:06;;;;;;;26.60;14.03;;;14.10;99.90;;;;;;5098145;27;20475;-62
2023/05/06 02:30:35;;;;;;;20.67;12.30;;;14.10;99.90;;;;;;5080514;28;21073;-62
2023/05/06 02:33:02;;;;;;;22.40;12.60;;;14.10;99.90;;;;;;5073273;28;20879;-62
2023/05/06 02:35:28;;;;;;;20.40;11.73;;;14.20;99.90;;;;;;5073423;28;20707;-62
2023/05/06 02:37:55;;;;;;;23.93;12.90;;;14.20;99.90;;;;;;5069787;28;20486;-63
2023/05/06 02:40:22;;;;;;;24.00;13.20;;;14.30;99.90;;;;;;5072262;28;20487;-62
2023/05/06 02:42:48;;;;;;;27.17;12.43;;;14.30;99.90;;;;;;5070813;28;20708;-62
2023/05/06 02:45:15;;;;;;;15.97;11.20;;;14.20;99.90;;;;;;5071720;28;20485;-62
2023/05/06 02:47:43;;;;;;;23.23;12.97;;;14.20;99.90;;;;;;5071201;28;20920;-62
2023/05/06 02:50:10;;;;;;;24.30;12.00;;;14.20;99.90;;;;;;5071687;28;20482;-62
2023/05/06 02:52:37;;;;;;;22.57;13.17;;;14.20;99.90;;;;;;5086342;27;20464;-62
2023/05/06 02:55:04;;;;;;;23.23;12.60;;;14.30;99.90;;;;;;5087809;27;21075;-62
2023/05/06 02:57:30;;;;;;;28.23;14.57;;;14.20;99.90;;;;;;5091653;27;20477;-62
2023/05/06 02:59:57;;;;;;;16.93;10.47;;;14.20;99.90;;;;;;5080368;28;20478;-62
2023/05/06 03:02:24;;;;;;;27.83;16.00;;;14.20;99.90;;;;;;5074846;28;21047;-62
2023/05/06 03:04:52;;;;;;;29.90;15.10;;;14.10;99.90;;;;;;5078831;27;20488;-62
2023/05/06 03:07:19;;;;;;;27.57;13.83;;;14.00;99.90;;;;;;5078828;28;20531;-62
2023/05/06 03:09:45;;;;;;;26.20;13.77;;;13.90;99.90;;;;;;5088158;28;20474;-62
2023/05/06 03:12:12;;;;;;;26.37;14.47;;;13.90;99.90;;;;;;5077314;27;20480;-62
2023/05/06 03:14:39;;;;;;;24.90;12.50;;;13.80;99.90;;;;;;5083873;27;20635;-62
2023/05/06 03:17:05;;;;;;;26.67;14.77;;;13.70;99.90;;;;;;5092521;27;20480;-62
2023/05/06 03:19:32;;;;;;;20.07;12.17;;;13.80;99.90;;;;;;5094168;27;20477;-62
2023/05/06 03:22:00;;;;;;;23.27;12.80;;;13.70;99.90;;;;;;5094174;27;20486;-62
2023/05/06 03:24:27;;;;;;;23.00;13.20;;;13.70;99.90;;;;;;5083535;28;20478;-62
2023/05/06 03:26:53;;;;;;;19.03;10.67;;;13.80;99.90;;;;;;5083626;27;20485;-62
2023/05/06 03:29:20;;;;;;;22.17;11.73;;;13.90;99.90;;;;;;5092003;28;20482;-62
2023/05/06 03:31:49;;;;;;;24.60;11.27;;;13.90;99.90;;;;;;5086268;27;20486;-62
2023/05/06 03:34:16;;;;;;;18.93;11.40;;;14.00;99.90;;;;;;5081216;28;20621;-62
2023/05/06 03:36:43;;;;;;;24.03;12.63;;;14.10;99.90;;;;;;5076585;27;20546;-63
2023/05/06 03:39:11;;;;;;;22.57;12.40;;;14.00;99.90;;;;;;5079754;27;21073;-62
2023/05/06 03:41:37;;;;;;;21.50;13.03;;;14.10;99.90;;;;;;5118788;27;20484;-62
2023/05/06 03:44:04;;;;;;;24.50;12.00;;;14.30;99.90;;;;;;5089245;27;20993;-62
2023/05/06 03:46:31;;;;;;;22.43;11.93;;;14.30;99.90;;;;;;5078131;28;20488;-61
2023/05/06 03:48:59;;;;;;;13.83;9.63;;;14.20;99.90;;;;;;5077921;28;20486;-62
2023/05/06 03:51:26;;;;;;;18.93;12.30;;;14.10;99.90;;;;;;5099141;28;20472;-62
2023/05/06 03:53:53;;;;;;;22.90;13.27;;;14.20;99.90;;;;;;5102245;27;20840;-61
2023/05/06 03:56:21;;;;;;;25.77;13.10;;;14.30;99.90;;;;;;5075389;28;20868;-62
2023/05/06 03:58:48;;;;;;;20.90;12.17;;;14.20;99.90;;;;;;5074109;28;20479;-62
2023/05/06 04:01:16;;;;;;;18.00;10.93;;;14.20;99.90;;;;;;5086843;27;20509;-62
2023/05/06 04:03:43;;;;;;;32.93;12.67;;;14.20;99.90;;;;;;5073277;28;20486;-62
2023/05/06 04:06:10;;;;;;;31.00;12.47;;;14.20;99.90;;;;;;5077415;28;20513;-62
2023/05/06 04:08:37;;;;;;;36.03;14.27;;;14.30;99.90;;;;;;5096891;28;20477;-63
2023/05/06 04:11:04;;;;;;;24.23;11.87;;;14.20;99.90;;;;;;5092012;28;20473;-62
2023/05/06 04:13:33;;;;;;;45.67;13.67;;;14.30;99.90;;;;;;5093457;28;20466;-61
2023/05/06 04:16:00;;;;;;;52.17;11.37;;;14.00;99.90;;;;;;5095039;27;20888;-62
2023/05/06 04:18:27;;;;;;;35.63;10.50;;;13.60;99.90;;;;;;5099224;27;20503;-62
2023/05/06 04:20:53;;;;;;;28.03;11.00;;;13.60;99.90;;;;;;5083157;27;20490;-62
2023/05/06 04:23:20;;;;;;;15.93;8.30;;;13.50;99.90;;;;;;5081966;28;20639;-62
2023/05/06 04:25:48;;;;;;;53.40;9.87;;;13.50;99.90;;;;;;5099359;28;20481;-62
2023/05/06 04:28:16;;;;;;;33.73;9.47;;;13.40;99.90;;;;;;5099424;27;20483;-62
2023/05/06 04:30:44;;;;;;;33.43;9.10;;;13.40;99.90;;;;;;5083103;27;20595;-62
2023/05/06 04:33:12;;;;;;;54.37;10.90;;;13.40;99.90;;;;;;5084109;28;20470;-62
2023/05/06 04:35:39;;;;;;;27.23;9.70;;;13.30;99.90;;;;;;5071155;28;20485;-62
2023/05/06 04:38:06;;;;;;;59.37;10.63;;;13.40;99.90;;;;;;5079978;28;20471;-62
2023/05/06 04:40:35;;;;;;;44.47;12.03;;;13.50;99.90;;;;;;5083679;27;20882;-62
2023/05/06 04:43:03;;;;;;;52.43;11.20;;;13.50;99.90;;;;;;5070853;28;20516;-62
2023/05/06 04:45:31;;;;;;;18.57;9.83;;;13.60;99.90;;;;;;5090656;28;20610;-62
2023/05/06 04:47:59;;;;;;;33.60;11.27;;;13.60;99.90;;;;;;5091329;27;20556;-62
2023/05/06 04:50:26;;;;;;;34.30;10.27;;;13.60;99.90;;;;;;5078745;28;20483;-62
2023/05/06 04:52:52;;;;;;;19.30;10.60;;;13.70;99.90;;;;;;5079364;28;20688;-62
2023/05/06 04:55:19;;;;;;;35.27;9.10;;;13.70;99.90;;;;;;5087077;28;20485;-62
2023/05/06 04:57:46;;;;;;;43.33;10.50;;;13.60;99.90;;;;;;5096518;28;20845;-62
2023/05/06 05:00:15;;;;;;;22.37;10.80;;;13.70;99.90;;;;;;5094119;28;20488;-62
2023/05/06 05:02:41;;;;;;;39.67;10.70;;;13.70;99.90;;;;;;5079347;28;20481;-62
2023/05/06 05:05:10;;;;;;;45.83;12.40;;;13.80;99.90;;;;;;5073239;28;20996;-62
2023/05/06 05:07:37;;;;;;;20.53;8.17;;;13.90;99.90;;;;;;5071236;28;20559;-62
2023/05/06 05:10:04;;;;;;;10.97;7.80;;;13.80;99.90;;;;;;5073265;28;20829;-62
2023/05/06 05:12:31;;;;;;;22.83;8.77;;;13.70;99.90;;;;;;5074007;28;20478;-62
2023/05/06 05:14:58;;;;;;;13.07;8.17;;;13.60;99.90;;;;;;5089346;28;20987;-62
2023/05/06 05:17:24;;;;;;;21.43;7.40;;;13.60;99.90;;;;;;5073265;27;21169;-62
2023/05/06 05:19:51;;;;;;;18.83;8.37;;;13.60;99.90;;;;;;5101758;27;20968;-62
2023/05/06 05:22:19;;;;;;;15.93;8.03;;;13.50;99.90;;;;;;5086696;27;21022;-62
2023/05/06 05:24:46;;;;;;;19.00;7.43;;;13.70;99.90;;;;;;5071639;28;20828;-62
2023/05/06 05:27:13;;;;;;;14.70;7.90;;;13.60;99.90;;;;;;5081359;28;20483;-62
2023/05/06 05:29:39;;;;;;;16.90;7.57;;;13.70;99.90;;;;;;5076996;28;20474;-62
2023/05/06 05:32:06;;;;;;;16.53;7.90;;;13.70;99.90;;;;;;5086832;27;20499;-62
2023/05/06 05:34:33;;;;;;;32.33;8.47;;;13.60;99.90;;;;;;5091897;27;20990;-62
2023/05/06 05:36:59;;;;;;;12.90;7.70;;;13.50;99.90;;;;;;5079924;28;21007;-62
2023/05/06 05:39:27;;;;;;;19.67;8.27;;;13.50;99.90;;;;;;5096561;28;20481;-62
2023/05/06 05:41:54;;;;;;;19.73;8.63;;;13.50;99.90;;;;;;5082167;28;20550;-62
2023/05/06 05:44:21;;;;;;;20.87;8.67;;;13.40;99.90;;;;;;5095901;28;20477;-62
2023/05/06 05:46:48;;;;;;;17.17;8.33;;;13.50;99.90;;;;;;5091276;28;21025;-63
2023/05/06 05:49:14;;;;;;;11.53;7.17;;;13.60;99.90;;;;;;5086052;28;20485;-62
2023/05/06 05:51:41;;;;;;;24.97;8.97;;;13.60;99.90;;;;;;5074109;28;20486;-62
2023/05/06 05:54:08;;;;;;;32.53;10.03;;;13.70;99.90;;;;;;5080197;27;20493;-62
2023/05/06 05:56:36;;;;;;;14.10;8.17;;;13.70;99.90;;;;;;5076441;28;20511;-62
2023/05/06 05:59:03;;;;;;;24.93;8.30;;;13.90;99.90;;;;;;5079815;28;20485;-62
2023/05/06 06:01:29;;;;;;;12.37;7.57;;;14.00;99.90;;;;;;5084260;28;20536;-62
2023/05/06 06:03:57;;;;;;;15.63;8.27;;;14.30;99.90;;;;;;5095062;28;20876;-62
2023/05/06 06:06:25;;;;;;;14.43;7.60;;;14.50;99.90;;;;;;5076797;28;20719;-62
2023/05/06 06:08:51;;;;;;;19.90;9.00;;;14.60;99.90;;;;;;5077263;28;21269;-62
2023/05/06 06:11:18;;;;;;;12.30;7.27;;;14.60;99.90;;;;;;5078903;28;20478;-62
2023/05/06 06:13:46;;;;;;;14.43;7.60;;;14.60;99.90;;;;;;5083973;28;20966;-62
2023/05/06 06:16:13;;;;;;;30.07;7.60;;;14.60;99.90;;;;;;5087605;28;20528;-62
2023/05/06 06:18:40;;;;;;;18.73;8.30;;;14.50;99.90;;;;;;5091049;28;21198;-62
2023/05/06 06:21:06;;;;;;;14.80;8.70;;;14.40;99.90;;;;;;5082352;28;20502;-62
2023/05/06 06:23:33;;;;;;;13.80;7.23;;;14.50;99.90;;;;;;5074273;28;20486;-62
2023/05/06 06:26:01;;;;;;;10.63;7.77;;;14.60;99.90;;;;;;5092266;28;21240;-62
2023/05/06 06:28:28;;;;;;;14.83;8.57;;;14.70;99.90;;;;;;5087089;27;20480;-62
2023/05/06 06:30:56;;;;;;;13.87;8.13;;;14.70;99.90;;;;;;5088004;27;21070;-62
2023/05/06 06:33:23;;;;;;;10.60;7.53;;;14.90;99.90;;;;;;5108394;27;21253;-63
2023/05/06 06:35:50;;;;;;;11.57;7.83;;;14.90;99.90;;;;;;5079271;28;20703;-62
2023/05/06 06:38:16;;;;;;;17.53;7.63;;;15.10;99.90;;;;;;5071387;28;21239;-62
2023/05/06 06:40:43;;;;;;;14.30;7.97;;;15.20;99.90;;;;;;5089210;28;20509;-62
2023/05/06 06:43:10;;;;;;;12.40;7.43;;;15.20;99.90;;;;;;5095723;28;20477;-62
2023/05/06 06:45:36;;;;;;;8.73;6.97;;;15.40;99.90;;;;;;5084818;28;20487;-62
2023/05/06 06:48:05;;;;;;;10.77;7.73;;;15.30;99.90;;;;;;5088199;28;20489;-61
2023/05/06 06:50:32;;;;;;;13.00;7.57;;;15.40;99.90;;;;;;5082053;28;20534;-62
2023/05/06 06:52:59;;;;;;;9.70;7.20;;;15.60;99.90;;;;;;5089251;28;20479;-62
2023/05/06 06:55:26;;;;;;;10.30;7.10;;;15.60;99.90;;;;;;5074469;28;21095;-62
2023/05/06 06:57:52;;;;;;;10.50;7.70;;;15.70;99.90;;;;;;5097922;27;20494;-63
2023/05/06 07:00:19;;;;;;;9.20;7.60;;;15.80;99.90;;;;;;5079706;28;20991;-62
2023/05/06 07:02:47;;;;;;;11.50;7.80;;;15.80;99.90;;;;;;5089826;28;20481;-63
2023/05/06 07:05:15;;;;;;;9.07;7.60;;;15.90;99.90;;;;;;5089185;28;20473;-62
2023/05/06 07:07:42;;;;;;;11.30;7.30;;;16.00;99.90;;;;;;5099593;28;21213;-62
2023/05/06 07:10:09;;;;;;;9.77;6.80;;;15.90;99.90;;;;;;5091477;28;20474;-62
2023/05/06 07:12:36;;;;;;;9.30;7.40;;;16.00;99.90;;;;;;5081645;28;20623;-62
2023/05/06 07:15:05;;;;;;;10.57;7.40;;;15.90;99.90;;;;;;5076451;28;20469;-62
2023/05/06 07:17:32;;;;;;;10.33;7.87;;;16.00;99.90;;;;;;5076379;28;20939;-62
2023/05/06 07:19:59;;;;;;;10.60;7.20;;;16.20;99.90;;;;;;5077763;28;20528;-62
2023/05/06 07:22:27;;;;;;;8.17;7.10;;;16.20;99.90;;;;;;5081711;28;21264;-62
2023/05/06 07:24:54;;;;;;;10.70;7.93;;;16.40;99.90;;;;;;5079756;28;20481;-62
2023/05/06 07:27:21;;;;;;;13.80;8.13;;;16.40;99.90;;;;;;5076506;28;20475;-62
2023/05/06 07:29:47;;;;;;;12.70;8.30;;;16.40;99.90;;;;;;5077524;28;20509;-62
2023/05/06 07:32:14;;;;;;;9.73;7.90;;;16.50;99.90;;;;;;5080962;28;20481;-62
2023/05/06 07:34:41;;;;;;;11.40;8.73;;;16.50;99.90;;;;;;5073813;28;20820;-63
2023/05/06 07:37:07;;;;;;;14.30;8.80;;;16.60;99.90;;;;;;5076781;28;20478;-62
2023/05/06 07:39:35;;;;;;;10.87;9.70;;;16.60;99.90;;;;;;5076563;28;20489;-62
2023/05/06 07:42:02;;;;;;;9.67;8.33;;;16.50;99.90;;;;;;5071664;28;21069;-62
2023/05/06 07:44:29;;;;;;;9.20;8.10;;;16.60;99.90;;;;;;5077440;28;20826;-62
2023/05/06 07:46:56;;;;;;;9.17;8.20;;;16.60;99.90;;;;;;5095683;27;20489;-62
2023/05/06 07:49:22;;;;;;;11.73;8.20;;;16.50;99.90;;;;;;5078217;28;20470;-62
2023/05/06 07:51:49;;;;;;;10.23;9.10;;;16.60;99.90;;;;;;5087773;28;21066;-62
2023/05/06 07:54:16;;;;;;;10.23;9.23;;;16.50;99.90;;;;;;5096337;28;20473;-62
2023/05/06 07:56:44;;;;;;;10.50;9.20;;;16.60;99.90;;;;;;5076729;27;20885;-61
2023/05/06 07:59:11;;;;;;;12.07;8.73;;;16.60;99.90;;;;;;5064738;28;20572;-62
2023/05/06 08:01:38;;;;;;;10.13;8.77;;;16.80;99.90;;;;;;5089086;27;21003;-61
2023/05/06 08:04:06;;;;;;;9.87;8.87;;;17.00;99.90;;;;;;5081908;28;20482;-62
2023/05/06 08:06:32;;;;;;;9.00;8.10;;;17.10;99.90;;;;;;5085617;28;20474;-62
2023/05/06 08:08:59;;;;;;;8.50;7.60;;;17.20;99.90;;;;;;5098542;28;20481;-61
2023/05/06 08:11:26;;;;;;;8.23;7.43;;;17.30;99.90;;;;;;5080292;28;21283;-62
2023/05/06 08:13:54;;;;;;;10.17;8.60;;;17.60;99.90;;;;;;5085981;28;20877;-63
2023/05/06 08:16:21;;;;;;;8.97;8.07;;;18.10;99.90;;;;;;5077306;28;20473;-63
2023/05/06 08:18:47;;;;;;;8.90;8.03;;;18.20;99.90;;;;;;5078185;28;20481;-63
2023/05/06 08:21:14;;;;;;;8.80;8.00;;;18.60;99.90;;;;;;5083440;27;20489;-63
2023/05/06 08:23:41;;;;;;;9.43;6.70;;;19.20;99.90;;;;;;5086133;28;20843;-63
2023/05/06 08:26:08;;;;;;;8.13;7.33;;;19.40;99.90;;;;;;5082438;28;20482;-63
2023/05/06 08:28:34;;;;;;;7.23;6.53;;;19.60;99.90;;;;;;5077859;28;20870;-63
2023/05/06 08:31:03;;;;;;;8.43;6.60;;;19.70;99.90;;;;;;5085486;27;20523;-63
2023/05/06 08:33:30;;;;;;;9.13;6.93;;;19.70;99.90;;;;;;5102898;27;20485;-63
2023/05/06 08:35:57;;;;;;;7.57;6.87;;;19.90;99.90;;;;;;5073595;27;20748;-63
2023/05/06 08:38:25;;;;;;;8.77;6.30;;;19.90;99.90;;;;;;5094701;27;20998;-64
2023/05/06 08:40:53;;;;;;;7.37;6.67;;;20.00;99.90;;;;;;5093644;27;20928;-63
2023/05/06 08:43:21;;;;;;;6.60;5.90;;;20.20;99.90;;;;;;5077457;28;21189;-63
2023/05/06 08:45:49;;;;;;;7.70;6.93;;;20.30;99.90;;;;;;5076953;28;20475;-63
2023/05/06 08:48:17;;;;;;;6.53;5.93;;;20.50;99.90;;;;;;5068139;28;20836;-63
2023/05/06 08:50:44;;;;;;;6.03;5.33;;;20.70;99.90;;;;;;5080925;27;20478;-63
2023/05/06 08:53:12;;;;;;;5.60;5.13;;;20.70;99.90;;;;;;5100673;27;20837;-62
2023/05/06 08:55:40;;;;;;;6.67;6.17;;;20.70;99.90;;;;;;5072013;28;20963;-62
2023/05/06 08:58:07;;;;;;;5.87;5.37;;;20.80;99.90;;;;;;5075495;28;20959;-64
2023/05/06 09:00:35;;;;;;;5.40;4.90;;;21.00;99.90;;;;;;5075084;28;20495;-64
2023/05/06 09:03:02;;;;;;;6.00;4.83;;;21.10;99.90;;;;;;5076464;28;20995;-64
2023/05/06 09:05:30;;;;;;;5.20;4.73;;;21.10;99.20;;;;;;5096160;28;20861;-64
2023/05/06 09:07:56;;;;;;;7.13;4.80;;;21.40;99.90;;;;;;5092834;27;20481;-63
2023/05/06 09:10:23;;;;;;;4.10;3.60;;;21.40;99.90;;;;;;5081616;28;20474;-64
2023/05/06 09:12:53;;;;;;;7.73;4.47;;;21.80;99.90;;;;;;5095951;28;20474;-63
2023/05/06 09:15:24;;;;;;;4.33;3.50;;;22.00;99.50;;;;;;5081700;28;20475;-63
2023/05/06 09:17:50;;;;;;;3.07;2.73;;;22.20;99.10;;;;;;5076133;28;20571;-63
2023/05/06 09:20:17;;;;;;;3.87;2.80;;;22.30;98.60;;;;;;5076803;28;20613;-64
2023/05/06 09:22:45;;;;;;;5.50;3.00;;;22.30;98.20;;;;;;5075622;28;20588;-64
2023/05/06 09:25:12;;;;;;;5.50;2.57;;;22.20;98.10;;;;;;5078835;28;22255;-64
2023/05/06 09:27:39;;;;;;;5.17;2.93;;;22.10;97.70;;;;;;5081202;28;20506;-64
2023/05/06 09:30:08;;;;;;;4.83;2.40;;;21.80;97.50;;;;;;5099109;28;20474;-64
2023/05/06 09:32:35;;;;;;;5.03;2.13;;;21.80;98.20;;;;;;5078358;28;21042;-64
2023/05/06 09:35:02;;;;;;;3.70;2.97;;;21.70;97.50;;;;;;5087735;27;20567;-64
2023/05/06 09:37:29;;;;;;;5.73;4.43;;;21.60;97.80;;;;;;5083214;27;20461;-64
2023/05/06 09:39:59;;;;;;;5.60;3.97;;;21.40;98.20;;;;;;5073525;28;21084;-63
2023/05/06 09:42:27;;;;;;;3.63;3.33;;;20.90;97.70;;;;;;5073650;28;20523;-64
2023/05/06 09:44:55;;;;;;;3.10;2.27;;;20.70;98.90;;;;;;5089622;27;20494;-63
2023/05/06 09:47:25;;;;;;;2.73;2.23;;;20.70;97.40;;;;;;5082654;28;20493;-64
2023/05/06 09:49:55;;;;;;;3.60;1.80;;;20.90;98.10;;;;;;5093229;27;21020;-63
2023/05/06 09:52:22;;;;;;;4.40;1.70;;;21.40;97.50;;;;;;5076930;28;20486;-64
2023/05/06 09:54:50;;;;;;;3.40;1.77;;;21.40;95.90;;;;;;5072119;28;20534;-64
2023/05/06 09:57:19;;;;;;;2.67;1.30;;;21.40;96.20;;;;;;5082475;28;20795;-64
2023/05/06 09:59:47;;;;;;;5.43;1.70;;;21.50;97.20;;;;;;5083706;28;20458;-64
2023/05/06 10:02:15;;;;;;;2.37;1.53;;;21.50;96.40;;;;;;5082017;28;20459;-64
2023/05/06 10:04:42;;;;;;;5.00;1.80;;;21.70;96.40;;;;;;5085357;28;20478;-64
2023/05/06 10:07:11;;;;;;;3.23;2.10;;;21.80;95.70;;;;;;5099708;27;20483;-64
2023/05/06 10:09:39;;;;;;;3.30;1.93;;;22.00;94.70;;;;;;5096257;27;20491;-64
2023/05/06 10:12:07;;;;;;;3.33;1.83;;;22.20;95.50;;;;;;5076053;28;20486;-64
2023/05/06 10:14:35;;;;;;;2.10;1.63;;;22.20;95.20;;;;;;5086548;28;20484;-63
2023/05/06 10:17:05;;;;;;;2.40;1.90;;;22.20;96.40;;;;;;5071298;28;20871;-64
2023/05/06 10:19:33;;;;;;;3.70;2.20;;;22.00;94.80;;;;;;5078615;28;20542;-64
2023/05/06 10:22:08;;;;;;;3.80;2.23;;;22.30;96.40;;;;;;5090011;28;20895;-64
2023/05/06 10:24:55;;;;;;;2.73;1.77;;;22.60;95.80;;;;;;5088373;28;21765;-65
2023/05/06 10:27:24;;;;;;;2.67;1.90;;;22.90;96.00;;;;;;5078834;28;21013;-65
2023/05/06 10:29:56;;;;;;;2.30;1.53;;;23.20;96.10;;;;;;5078038;28;20549;-66
2023/05/06 10:32:27;;;;;;;2.67;1.70;;;23.40;96.30;;;;;;5091141;28;20478;-65
2023/05/06 10:34:56;;;;;;;4.27;1.90;;;23.80;94.60;;;;;;5081621;28;20478;-64
2023/05/06 10:37:25;;;;;;;2.20;1.53;;;24.20;94.60;;;;;;5068624;28;20471;-65
2023/05/06 10:39:53;;;;;;;5.63;1.67;;;24.40;94.70;;;;;;5088648;28;20455;-64
2023/05/06 10:42:20;;;;;;;2.33;1.17;;;24.70;94.80;;;;;;5091954;28;20547;-64
2023/05/06 10:44:58;;;;;;;4.27;1.93;;;24.80;93.20;;;;;;5088096;28;20886;-65
2023/05/06 10:47:25;;;;;;;2.80;1.40;;;24.50;91.80;;;;;;5098142;28;20447;-64
2023/05/06 10:50:21;;;;;;;2.87;1.20;;;24.70;93.40;;;;;;5077081;28;20544;-64
2023/05/06 10:52:50;;;;;;;4.20;2.93;;;24.60;92.00;;;;;;5085692;28;20466;-64
2023/05/06 10:55:28;;;;;;;2.40;1.70;;;24.00;91.70;;;;;;5088683;27;20455;-64
2023/05/06 10:57:56;;;;;;;2.03;1.17;;;24.00;90.60;;;;;;5083575;28;21016;-64
2023/05/06 11:00:25;;;;;;;3.97;1.37;;;23.90;91.00;;;;;;5075966;28;20569;-64
2023/05/06 11:03:07;;;;;;;3.93;1.37;;;23.20;90.40;;;;;;5076298;28;20479;-64
2023/05/06 11:05:46;;;;;;;4.60;1.20;;;23.20;90.90;;;;;;5077760;28;20483;-64
2023/05/06 11:08:13;;;;;;;3.43;1.10;;;23.20;90.20;;;;;;5089085;28;20560;-64
2023/05/06 11:10:40;;;;;;;2.60;1.80;;;23.10;90.00;;;;;;5087977;28;20527;-65
2023/05/06 11:13:21;;;;;;;2.20;1.13;;;23.30;92.40;;;;;;5097138;27;20468;-65
2023/05/06 11:15:50;;;;;;;2.20;1.40;;;23.80;92.30;;;;;;5061078;28;20474;-64
2023/05/06 11:18:43;;;;;;;2.90;1.50;;;24.10;91.30;;;;;;5075397;28;20452;-65
2023/05/06 11:21:39;;;;;;;2.10;1.20;;;24.20;91.50;;;;;;5080169;28;21177;-65
2023/05/06 11:24:11;;;;;;;5.67;1.40;;;24.30;91.70;;;;;;5087072;27;20496;-64
2023/05/06 11:26:40;;;;;;;3.40;1.10;;;24.20;91.10;;;;;;5076440;28;20479;-65
2023/05/06 11:29:08;;;;;;;5.20;1.90;;;24.30;91.80;;;;;;5078907;28;20542;-65
2023/05/06 11:31:41;;;;;;;1.87;1.20;;;23.70;89.20;;;;;;5098949;27;20508;-65
2023/05/06 11:34:10;;;;;;;3.97;1.50;;;23.70;89.60;;;;;;5087180;27;21244;-64
2023/05/06 11:36:46;;;;;;;2.33;1.57;;;23.50;90.10;;;;;;5079090;28;20523;-64
2023/05/06 11:39:13;;;;;;;5.40;1.23;;;23.50;91.50;;;;;;5082470;28;20545;-65
2023/05/06 11:41:40;;;;;;;1.83;0.90;;;23.90;93.00;;;;;;5078257;28;20506;-64
2023/05/06 11:44:08;;;;;;;6.73;1.20;;;24.00;90.10;;;;;;5086904;28;20810;-65
2023/05/06 11:46:35;;;;;;;3.20;1.20;;;24.20;89.00;;;;;;5078075;27;20450;-65
2023/05/06 11:49:03;;;;;;;1.80;1.33;;;24.30;89.60;;;;;;5096954;27;20476;-64
2023/05/06 11:51:31;;;;;;;2.27;1.13;;;24.50;91.70;;;;;;5080589;28;20850;-65
2023/05/06 11:54:06;;;;;;;2.97;1.03;;;24.70;90.40;;;;;;5081236;28;20525;-64
2023/05/06 11:56:47;;;;;;;2.03;1.17;;;24.70;86.50;;;;;;5078451;28;20914;-64
2023/05/06 11:59:14;;;;;;;2.00;0.97;;;24.40;83.30;;;;;;5078200;28;20941;-65
2023/05/06 12:01:42;;;;;;;2.00;1.13;;;24.00;82.70;;;;;;5080981;28;20824;-65
2023/05/06 12:04:10;;;;;;;2.43;1.27;;;23.70;81.80;;;;;;5072323;28;20461;-65
2023/05/06 12:06:38;;;;;;;3.20;1.43;;;23.70;82.70;;;;;;5072580;28;20465;-65
2023/05/06 12:09:06;;;;;;;1.70;1.00;;;24.00;87.20;;;;;;5075373;28;20512;-64
2023/05/06 12:11:34;;;;;;;3.60;1.30;;;23.90;85.60;;;;;;5081291;28;20465;-64
2023/05/06 12:14:02;;;;;;;2.47;1.23;;;23.90;84.20;;;;;;5085193;28;20478;-64
2023/05/06 12:16:59;;;;;;;3.50;1.10;;;23.60;83.60;;;;;;5062606;27;20444;-64
2023/05/06 12:19:29;;;;;;;3.07;1.10;;;23.40;82.60;;;;;;5068913;27;20453;-64
2023/05/06 12:21:56;;;;;;;3.40;1.10;;;23.40;83.30;;;;;;5078006;28;20483;-63
2023/05/06 12:24:29;;;;;;;2.77;1.17;;;24.00;85.20;;;;;;5085005;27;20489;-64
2023/05/06 12:26:55;;;;;;;2.47;1.10;;;24.00;84.70;;;;;;5082427;28;20460;-64
2023/05/06 12:29:22;;;;;;;3.47;1.00;;;24.40;84.30;;;;;;5095423;28;20481;-64
2023/05/06 12:31:49;;;;;;;2.63;1.30;;;24.40;86.80;;;;;;5084558;28;20976;-65
2023/05/06 12:34:17;;;;;;;2.93;1.20;;;24.00;83.50;;;;;;5098304;27;20584;-65
2023/05/06 12:36:46;;;;;;;2.83;1.40;;;23.70;86.00;;;;;;5068588;28;20482;-65
2023/05/06 12:39:14;;;;;;;2.07;1.10;;;23.90;86.60;;;;;;5098427;27;20465;-64
2023/05/06 12:41:42;;;;;;;2.13;1.10;;;24.00;85.30;;;;;;5069501;28;20845;-64
2023/05/06 12:44:32;;;;;;;2.00;1.00;;;24.10;87.00;;;;;;5073550;28;20510;-65